Data for 02/11/2013

Time Sea-Level Adjusted Pressure Absolute Pressure Temperature Relative Humidity Dew Point   
(mb) (inHg) (mb) (inHg) (C) (F) (%) (C) (F)
00:05 1019 30.09 849 25.07 -11.7 10.9 75 -15.3 4.4
00:10 1019 30.09 849 25.07 -11.8 10.9 76 -15.2 4.6
00:15 1019 30.09 849 25.07 -11.6 11.2 75 -15.1 4.8
00:20 1019 30.09 849 25.07 -11.3 11.6 75 -14.9 5.2
00:25 1019 30.09 849 25.07 -11.4 11.5 72 -15.5 4.1
00:30 1019 30.09 849 25.07 -11.4 11.4 73 -15.4 4.2
00:35 1019 30.09 849 25.07 -11.7 11 73 -15.5 4
00:40 1019 30.09 849 25.07 -11.3 11.7 71 -15.6 3.9
00:45 1019 30.09 849 25.07 -11.1 12 71 -15.4 4.3
00:50 1019 30.09 848 25.04 -10.7 12.7 70 -15.2 4.7
00:55 1019 30.09 848 25.04 -11.1 12.1 72 -15.2 4.7
01:00 1019 30.09 848 25.04 -11.1 12 71 -15.3 4.4
01:05 1019 30.09 848 25.04 -11.3 11.6 73 -15.3 4.4
01:10 1019 30.09 848 25.04 -11.6 11.1 74 -15.4 4.3
01:15 1019 30.09 848 25.04 -11.8 10.8 74 -15.5 4.1
01:20 1019 30.09 848 25.04 -11.7 10.9 74 -15.5 4.2
01:25 1019 30.09 848 25.04 -11.7 10.9 75 -15.4 4.3
01:30 1019 30.09 848 25.04 -11.6 11.1 74 -15.3 4.4
01:35 1019 30.09 848 25.04 -12 10.4 76 -15.4 4.2
01:40 1019 30.09 848 25.04 -12.2 10.1 76 -15.6 3.9
01:45 1019 30.09 848 25.04 -12 10.3 74 -15.7 3.7
01:50 1019 30.09 848 25.04 -12.1 10.2 76 -15.6 4
01:55 1019 30.09 848 25.04 -12.3 9.9 74 -16 3.3
02:00 1019 30.09 848 25.04 -12.6 9.3 76 -16 3.1
02:05 1019 30.09 848 25.04 -12.7 9.1 76 -16.1 3
02:10 1019 30.09 848 25.04 -12.7 9.1 77 -16 3.2
02:15 1019 30.09 848 25.04 -12.6 9.3 76 -15.9 3.3
02:20 1019 30.09 848 25.04 -12.5 9.5 75 -16 3.2
02:25 1019 30.09 848 25.04 -12.9 8.8 77 -16.2 2.9
02:30 1019 30.09 848 25.04 -12.9 8.8 77 -16.2 2.9
02:35 1019 30.09 848 25.04 -12.7 9.1 76 -16.2 2.8
02:40 1019 30.09 848 25.04 -12.8 8.9 77 -16.1 3
02:45 1018 30.06 848 25.04 -12.9 8.8 77 -16.1 3
02:50 1018 30.06 848 25.04 -12.8 9 77 -16.1 3
02:55 1018 30.06 848 25.04 -12.6 9.2 76 -16 3.2
03:00 1018 30.06 848 25.04 -12.5 9.5 75 -16 3.1
03:05 1018 30.06 848 25.04 -12.3 9.8 75 -16 3.3
03:10 1018 30.06 848 25.04 -12 10.3 74 -15.8 3.5
03:15 1018 30.06 848 25.04 -11.4 11.4 72 -15.5 4.1
03:20 1018 30.06 848 25.04 -11.6 11.1 69 -16.2 2.8
03:25 1018 30.06 848 25.04 -12 10.4 71 -16.3 2.7
03:30 1018 30.06 848 25.04 -12.2 10.1 72 -16.3 2.7
03:35 1018 30.06 847 25.01 -11.8 10.7 71 -16 3.2
03:40 1018 30.06 847 25.01 -11.6 11.1 69 -16.2 2.9
03:45 1018 30.06 847 25.01 -11.8 10.7 70 -16.3 2.7
03:50 1018 30.06 847 25.01 -11.9 10.7 70 -16.2 2.8
03:55 1018 30.06 847 25.01 -12.2 10 73 -16.2 2.8
04:00 1018 30.06 847 25.01 -12.6 9.4 74 -16.3 2.6
04:05 1018 30.06 847 25.01 -12.4 9.6 73 -16.3 2.7
04:10 1018 30.06 847 25.01 -12.4 9.8 74 -16.1 3
04:15 1018 30.06 847 25.01 -12.3 10 74 -16 3.1
04:20 1018 30.06 847 25.01 -12.5 9.6 75 -16 3.1
04:25 1018 30.06 847 25.01 -12.5 9.4 75 -16 3.1
04:30 1018 30.06 847 25.01 -12.8 8.9 76 -16.2 2.8
04:35 1018 30.06 847 25.01 -13.1 8.4 79 -16 3.2
04:40 1018 30.06 847 25.01 -12.4 9.6 76 -15.9 3.5
04:45 1018 30.06 847 25.01 -12 10.4 74 -15.8 3.5
04:50 1018 30.06 847 25.01 -12.2 10 75 -15.8 3.6
04:55 1017 30.03 847 25.01 -12.1 10.3 74 -15.7 3.7
05:00 1017 30.03 847 25.01 -11.8 10.7 71 -16.1 3
05:05 1017 30.03 847 25.01 -12.1 10.2 73 -16.1 3.1
05:10 1017 30.03 847 25.01 -12.6 9.4 73 -16.4 2.4
05:15 1017 30.03 847 25.01 -12.7 9.1 72 -16.8 1.8
05:20 1017 30.03 847 25.01 -12.5 9.5 72 -16.6 2.1
05:25 1017 30.03 847 25.01 -12.4 9.7 72 -16.4 2.4
05:30 1017 30.03 847 25.01 -12.1 10.1 71 -16.4 2.6
05:35 1017 30.03 847 25.01 -12.3 9.9 73 -16.3 2.7
05:40 1017 30.03 847 25.01 -12.1 10.1 72 -16.2 2.8
05:45 1017 30.03 847 25.01 -11.9 10.7 72 -15.9 3.4
05:50 1017 30.03 847 25.01 -11.4 11.5 70 -15.9 3.5
05:55 1017 30.03 847 25.01 -11.3 11.8 68 -16 3.2
06:00 1017 30.03 847 25.01 -11.5 11.3 70 -16 3.2
06:05 1017 30.03 847 25.01 -11.8 10.7 71 -16.1 3
06:10 1017 30.03 847 25.01 -12.4 9.8 71 -16.6 2.2
06:15 1017 30.03 847 25.01 -13.1 8.5 79 -16.1 3.1
06:20 1017 30.03 846 24.98 -12.3 9.9 73 -16.2 2.9
06:25 1017 30.03 846 24.98 -11.9 10.6 73 -15.8 3.6
06:30 1017 30.03 846 24.98 -12.1 10.3 74 -15.8 3.6
06:35 1017 30.03 846 24.98 -12.7 9.2 78 -15.8 3.6
06:40 1017 30.03 846 24.98 -12.9 8.9 76 -16.2 2.9
06:45 1017 30.03 846 24.98 -12.7 9.1 75 -16.3 2.7
06:50 1017 30.03 846 24.98 -13 8.6 75 -16.6 2.2
06:55 1017 30.03 846 24.98 -13 8.6 75 -16.6 2.1
07:00 1017 30.03 846 24.98 -13.4 7.8 77 -16.7 1.9
07:05 1017 30.03 846 24.98 -13.6 7.6 79 -16.5 2.3
07:10 1017 30.03 846 24.98 -13.3 8.1 75 -16.8 1.8
07:15 1017 30.03 846 24.98 -12.6 9.3 73 -16.5 2.3
07:20 1017 30.03 846 24.98 -12.5 9.6 71 -16.7 2
07:25 1017 30.03 846 24.98 -13 8.6 73 -16.9 1.6
07:30 1017 30.03 846 24.98 -13 8.6 73 -16.9 1.6
07:35 1017 30.03 846 24.98 -12.9 8.8 74 -16.6 2.1
07:40 1017 30.03 846 24.98 -12.8 8.9 72 -16.8 1.8
07:45 1017 30.03 846 24.98 -13.4 8 76 -16.7 2
07:50 1017 30.03 846 24.98 -13.4 7.8 78 -16.6 2.2
07:55 1017 30.03 846 24.98 -13.3 8.1 77 -16.5 2.3
08:00 1017 30.03 846 24.98 -13.3 8.1 76 -16.6 2
08:05 1017 30.03 846 24.98 -13.5 7.7 79 -16.4 2.5
08:10 1017 30.03 846 24.98 -13.5 7.8 78 -16.5 2.2
08:15 1017 30.03 846 24.98 -13.3 8 76 -16.7 1.9
08:20 1017 30.03 846 24.98 -13.7 7.4 79 -16.5 2.2
08:25 1017 30.03 847 25.01 -13.7 7.4 79 -16.6 2.1
08:30 1017 30.03 846 24.98 -13.5 7.7 81 -16.1 3.1
08:35 1017 30.03 846 24.98 -13.1 8.4 77 -16.3 2.7
08:40 1017 30.03 846 24.98 -13.4 7.9 79 -16.3 2.7
08:45 1017 30.03 847 25.01 -13.3 8 80 -16.2 2.9
08:50 1017 30.03 847 25.01 -13.4 7.9 79 -16.3 2.7
08:55 1017 30.03 847 25.01 -13.4 7.9 81 -16.1 3.1
09:00 1017 30.03 847 25.01 -12.7 9.1 77 -15.9 3.4
09:05 1017 30.03 847 25.01 -12.5 9.6 76 -15.8 3.6
09:10 1017 30.03 847 25.01 -12.4 9.6 76 -15.9 3.4
09:15 1018 30.06 847 25.01 -12.7 9.1 77 -16 3.2
09:20 1018 30.06 847 25.01 -12.9 8.8 76 -16.3 2.7
09:25 1018 30.06 847 25.01 -12.6 9.3 75 -16.2 2.9
09:30 1018 30.06 847 25.01 -12 10.4 73 -15.9 3.3
09:35 1018 30.06 847 25.01 -11.8 10.8 73 -15.8 3.6
09:40 1018 30.06 847 25.01 -12 10.4 73 -15.9 3.3
09:45 1018 30.06 847 25.01 -11.9 10.6 73 -15.8 3.6
09:50 1018 30.06 847 25.01 -11.5 11.2 73 -15.4 4.3
09:55 1018 30.06 847 25.01 -11.2 11.9 72 -15.3 4.5
10:00 1018 30.06 847 25.01 -10.9 12.4 69 -15.5 4
10:05 1018 30.06 847 25.01 -10.5 13.2 69 -15.1 4.8
10:10 1018 30.06 847 25.01 -10.2 13.6 69 -14.9 5.2
10:15 1018 30.06 847 25.01 -10.1 13.9 68 -14.9 5.1
10:20 1018 30.06 847 25.01 -9.8 14.3 68 -14.7 5.5
10:25 1018 30.06 847 25.01 -9.9 14.2 66 -15.1 4.9
10:30 1018 30.06 847 25.01 -9.7 14.5 66 -14.9 5.2
10:35 1018 30.06 847 25.01 -9.6 14.8 65 -14.9 5.2
10:40 1018 30.06 847 25.01 -8.9 16.1 62 -14.9 5.2
10:45 1018 30.06 847 25.01 -8.8 16.2 62 -14.8 5.3
10:50 1018 30.06 847 25.01 -8.4 16.9 61 -14.7 5.5
10:55 1018 30.06 847 25.01 -8.4 17 62 -14.3 6.3
11:00 1018 30.06 847 25.01 -8.3 17.1 63 -14.2 6.5
11:05 1018 30.06 847 25.01 -7.9 17.7 62 -14 6.9
11:10 1018 30.06 847 25.01 -7.7 18.2 57 -14.8 5.4
11:15 1018 30.06 847 25.01 -7.6 18.3 56 -15 5
11:20 1018 30.06 847 25.01 -7.7 18.1 56 -15.1 4.9
11:25 1018 30.06 847 25.01 -8 17.5 57 -15.2 4.7
11:30 1018 30.06 847 25.01 -8.1 17.4 58 -15 4.9
11:35 1018 30.06 847 25.01 -8.1 17.4 58 -15 4.9
11:40 1018 30.06 847 25.01 -8 17.7 58 -14.8 5.3
11:45 1018 30.06 847 25.01 -7.3 18.8 57 -14.5 5.9
11:50 1018 30.06 847 25.01 -6.8 19.8 55 -14.3 6.3
11:55 1018 30.06 847 25.01 -6.2 20.8 53 -14.3 6.2
12:00 1018 30.06 847 25.01 -6.1 21 52 -14.3 6.2
12:05 1018 30.06 847 25.01 -6 21.2 53 -14.1 6.6
12:10 1018 30.06 847 25.01 -5.8 21.5 54 -13.8 7.1
12:15 1018 30.06 847 25.01 -6 21.1 54 -13.8 7.1
12:20 1018 30.06 847 25.01 -5.9 21.4 54 -13.6 7.4
12:25 1018 30.06 847 25.01 -5.8 21.5 54 -13.6 7.5
12:30 1018 30.06 847 25.01 -5.5 22 54 -13.4 7.9
12:35 1018 30.06 847 25.01 -5.3 22.4 53 -13.5 7.8
12:40 1018 30.06 847 25.01 -5.2 22.7 52 -13.6 7.6
12:45 1018 30.06 847 25.01 -5.1 22.8 54 -13 8.5
12:50 1018 30.06 847 25.01 -4.7 23.5 52 -13.2 8.2
12:55 1018 30.06 847 25.01 -4.5 24 51 -13.1 8.4
13:00 1018 30.06 847 25.01 -4.3 24.3 49 -13.5 7.7
13:05 1018 30.06 847 25.01 -4.4 24 51 -13.1 8.4
13:10 1017 30.03 847 25.01 -4.4 24 51 -13.1 8.3
13:15 1018 30.06 847 25.01 -4.5 24 50 -13.4 7.9
13:20 1017 30.03 847 25.01 -4.1 24.6 51 -12.7 9.1
13:25 1017 30.03 847 25.01 -4.4 24.2 53 -12.5 9.5
13:30 1017 30.03 847 25.01 -4.9 23.2 55 -12.6 9.3
13:35 1017 30.03 847 25.01 -4.3 24.3 52 -12.7 9.1
13:40 1017 30.03 847 25.01 -3.2 26.2 46 -13.2 8.3
13:45 1017 30.03 847 25.01 -2.2 28.1 46 -12.4 9.7
13:50 1017 30.03 847 25.01 -1.1 30 42 -12.5 9.5
13:55 1017 30.03 847 25.01 -0.5 31.2 41 -12.2 10
14:00 1017 30.03 847 25.01 -0.6 30.9 42 -12.1 10.3
14:05 1017 30.03 847 25.01 -0.9 30.4 44 -11.7 10.9
14:10 1017 30.03 847 25.01 -1.2 29.9 47 -11 12.1
14:15 1017 30.03 846 24.98 -1.2 29.9 46 -11.4 11.5
14:20 1017 30.03 847 25.01 -2.8 27 53 -11.1 12.1
14:25 1017 30.03 847 25.01 -3.3 26.1 55 -11.1 12
14:30 1017 30.03 847 25.01 -3.6 25.5 54 -11.5 11.2
14:35 1017 30.03 847 25.01 -4 24.8 55 -11.7 11
14:40 1017 30.03 846 24.98 -3.4 25.8 52 -12 10.5
14:45 1017 30.03 846 24.98 -3.5 25.7 52 -12 10.5
14:50 1017 30.03 846 24.98 -3.1 26.5 51 -11.8 10.8
14:55 1017 30.03 846 24.98 -3 26.7 50 -12 10.5
15:00 1017 30.03 846 24.98 -3.5 25.6 53 -11.7 10.9
15:05 1017 30.03 846 24.98 -3.3 26.1 50 -12.2 10.1
15:10 1017 30.03 846 24.98 -3.6 25.5 50 -12.5 9.5
15:15 1017 30.03 846 24.98 -3.4 25.9 51 -12 10.3
15:20 1017 30.03 846 24.98 -2.7 27.2 49 -11.9 10.5
15:25 1017 30.03 846 24.98 -2 28.4 45 -12.3 9.8
15:30 1017 30.03 846 24.98 -1.5 29.2 45 -12.1 10.2
15:35 1017 30.03 846 24.98 -1.8 28.7 46 -12 10.3
15:40 1017 30.03 846 24.98 -1 30.2 42 -12.5 9.5
15:45 1017 30.03 846 24.98 -1.3 29.7 41 -12.9 8.8
15:50 1017 30.03 846 24.98 -1 30.3 40 -12.9 8.8
15:55 1017 30.03 846 24.98 -1.2 29.9 41 -12.8 9
16:00 1017 30.03 846 24.98 -0.7 30.8 41 -12.5 9.6
16:05 1017 30.03 846 24.98 -0.1 31.9 37 -13 8.6
16:10 1017 30.03 846 24.98 -0 32 39 -12.3 9.8
16:15 1017 30.03 846 24.98 -0.8 30.6 42 -12.1 10.3
16:20 1017 30.03 846 24.98 -1.6 29.2 44 -12.4 9.7
16:25 1017 30.03 846 24.98 -1.6 29.1 45 -12.1 10.2
16:30 1017 30.03 846 24.98 -1.6 29.2 44 -12.2 10
16:35 1017 30.03 846 24.98 -1.1 30 42 -12.6 9.4
16:40 1017 30.03 846 24.98 -0.8 30.6 40 -12.7 9.1
16:45 1017 30.03 846 24.98 -1 30.3 42 -12.4 9.6
16:50 1017 30.03 846 24.98 -1 30.2 41 -12.7 9.2
16:55 1017 30.03 846 24.98 -0.6 30.8 40 -12.6 9.3
17:00 1017 30.03 846 24.98 -0.1 31.8 38 -13 8.6
17:05 1017 30.03 846 24.98 0.4 32.7 36 -13 8.6
17:10 1017 30.03 846 24.98 0.2 32.4 38 -12.3 9.8
17:15 1017 30.03 846 24.98 -0.8 30.6 43 -11.8 10.8
17:20 1017 30.03 846 24.98 -1.3 29.7 44 -12.1 10.2
17:25 1017 30.03 846 24.98 -0.7 30.8 40 -12.6 9.3
17:30 1017 30.03 846 24.98 -0.3 31.5 40 -12.3 9.8
17:35 1017 30.03 846 24.98 -0.5 31.1 41 -12.3 9.8
17:40 1017 30.03 846 24.98 -0.9 30.4 43 -12 10.3
17:45 1017 30.03 846 24.98 -0.7 30.7 41 -12.3 9.8
17:50 1017 30.03 846 24.98 -0.7 30.7 41 -12.5 9.6
17:55 1017 30.03 846 24.98 -1.6 29.1 44 -12.4 9.6
18:00 1017 30.03 846 24.98 -1.8 28.7 45 -12.2 10
18:05 1017 30.03 846 24.98 -2.1 28.3 45 -12.4 9.6
18:10 1017 30.03 846 24.98 -1.8 28.8 46 -12 10.3
18:15 1017 30.03 846 24.98 -1.7 29 43 -12.6 9.4
18:20 1017 30.03 846 24.98 -1.7 29 44 -12.5 9.5
18:25 1017 30.03 846 24.98 -1.5 29.3 44 -12.3 9.9
18:30 1017 30.03 846 24.98 -1.5 29.2 44 -12.2 10
18:35 1017 30.03 846 24.98 -1.8 28.8 45 -12.2 10
18:40 1017 30.03 846 24.98 -2 28.3 46 -12.1 10.3
18:45 1017 30.03 846 24.98 -2.4 27.6 48 -12.1 10.3
18:50 1017 30.03 846 24.98 -2.9 26.8 49 -12.1 10.2
18:55 1017 30.03 846 24.98 -3.3 26.1 49 -12.6 9.3
19:00 1017 30.03 846 24.98 -4.2 24.4 52 -12.7 9.1
19:05 1017 30.03 846 24.98 -4.5 23.9 52 -13 8.7
19:10 1017 30.03 846 24.98 -4.7 23.5 52 -13.1 8.4
19:15 1017 30.03 846 24.98 -5 23 53 -13.1 8.3
19:20 1017 30.03 846 24.98 -5 23 54 -12.9 8.8
19:25 1017 30.03 847 25.01 -5.1 22.8 54 -13.1 8.4
19:30 1017 30.03 847 25.01 -5.2 22.6 55 -13 8.7
19:35 1017 30.03 847 25.01 -5.6 21.8 58 -12.7 9.1
19:40 1017 30.03 846 24.98 -5.9 21.4 61 -12.2 10
19:45 1017 30.03 846 24.98 -6 21.2 62 -12.1 10.2
19:50 1017 30.03 847 25.01 -6 21.2 62 -12.1 10.1
19:55 1017 30.03 847 25.01 -5.9 21.3 63 -11.9 10.6
20:00 1017 30.03 847 25.01 -6 21.3 66 -11.3 11.6
20:05 1017 30.03 847 25.01 -6.1 21.1 64 -11.7 10.9
20:10 1017 30.03 847 25.01 -5.9 21.3 65 -11.5 11.4
20:15 1017 30.03 847 25.01 -6 21.3 66 -11.3 11.7
20:20 1017 30.03 846 24.98 -5.9 21.4 68 -10.9 12.4
20:25 1017 30.03 846 24.98 -5.9 21.4 66 -11.2 11.8
20:30 1017 30.03 846 24.98 -6 21.2 68 -11 12.2
20:35 1017 30.03 846 24.98 -6.2 20.8 69 -11 12.3
20:40 1017 30.03 846 24.98 -6.3 20.7 69 -11 12.1
20:45 1017 30.03 846 24.98 -6.5 20.3 70 -11.2 11.9
20:50 1017 30.03 846 24.98 -6.7 20 68 -11.7 11
20:55 1017 30.03 846 24.98 -6.8 19.7 68 -11.7 10.9
21:00 1017 30.03 846 24.98 -6.8 19.8 69 -11.6 11.2
21:05 1017 30.03 846 24.98 -6.9 19.5 70 -11.6 11.2
21:10 1017 30.03 846 24.98 -7.3 18.9 72 -11.6 11.2
21:15 1017 30.03 847 25.01 -7.5 18.6 73 -11.6 11.2
21:20 1017 30.03 847 25.01 -7.5 18.5 73 -11.5 11.3
21:25 1017 30.03 847 25.01 -7.5 18.6 73 -11.4 11.4
21:30 1017 30.03 847 25.01 -7.2 19.1 72 -11.5 11.4
21:35 1017 30.03 847 25.01 -6.7 20 71 -11.2 11.8
21:40 1017 30.03 847 25.01 -6.4 20.4 70 -11.1 12.1
21:45 1017 30.03 847 25.01 -6.3 20.6 69 -11.1 12
21:50 1018 30.06 847 25.01 -6.2 20.8 68 -11.2 11.8
21:55 1018 30.06 847 25.01 -6.2 20.9 69 -11.1 12.1
22:00 1018 30.06 847 25.01 -6.6 20.1 70 -11.2 11.8
22:05 1018 30.06 847 25.01 -7 19.4 72 -11.3 11.6
22:10 1018 30.06 847 25.01 -7.1 19.2 73 -11.1 12
22:15 1018 30.06 847 25.01 -7 19.3 73 -11.2 11.9
22:20 1018 30.06 847 25.01 -6.8 19.7 69 -11.5 11.2
22:25 1018 30.06 847 25.01 -6.5 20.2 69 -11.3 11.6
22:30 1018 30.06 847 25.01 -6.9 19.6 70 -11.5 11.4
22:35 1018 30.06 847 25.01 -7.2 19 72 -11.5 11.3
22:40 1018 30.06 847 25.01 -7.3 18.8 71 -11.7 10.9
22:45 1018 30.06 847 25.01 -7.5 18.5 71 -11.9 10.7
22:50 1018 30.06 847 25.01 -7.7 18.1 70 -12.3 9.9
22:55 1018 30.06 847 25.01 -7.2 19 72 -11.4 11.4
23:00 1018 30.06 847 25.01 -7.2 19.1 72 -11.4 11.5
23:05 1018 30.06 847 25.01 -7.1 19.3 70 -11.7 10.9
23:10 1018 30.06 847 25.01 -7 19.4 69 -11.8 10.7
23:15 1018 30.06 847 25.01 -7.2 19.1 70 -11.8 10.8
23:20 1018 30.06 847 25.01 -7.3 18.9 70 -11.9 10.7
23:25 1018 30.06 847 25.01 -7.4 18.8 71 -11.8 10.8
23:30 1018 30.06 847 25.01 -7.5 18.4 72 -11.7 10.9
23:35 1018 30.06 847 25.01 -7.3 18.9 72 -11.6 11.2
23:40 1018 30.06 847 25.01 -7 19.5 71 -11.3 11.6
23:45 1018 30.06 847 25.01 -6.8 19.7 72 -11.1 12
23:50 1018 30.06 847 25.01 -6.9 19.6 72 -11.1 12
23:55 1018 30.06 847 25.01 -6.9 19.7 72 -11.2 11.9
24:00 1018 30.06 847 25.01 -6.9 19.7 72 -11.1 12